Time;durP1;ratioP1;P1;durP2;ratioP2;P2;SDS_P1;SDS_P2;PMS_P1;PMS_P2;Temp;Humidity;BMP_temperature;BMP_pressure;BME280_temperature;BME280_humidity;BME280_pressure;Samples;Min_cycle;Max_cycle;Signal;HPM_P1;HPM_P2
2022/08/28 00:00:28;;;;;;;29.63;19.50;;;22.50;99.90;;;;;;5007871;28;20027;-73
2022/08/28 00:02:55;;;;;;;25.30;18.27;;;22.70;99.90;;;;;;5007610;28;20148;-74
2022/08/28 00:05:24;;;;;;;31.02;19.02;;;22.70;99.90;;;;;;5004123;28;20029;-73
2022/08/28 00:07:50;;;;;;;27.10;18.65;;;22.60;99.90;;;;;;4993719;28;20034;-75
2022/08/28 00:10:18;;;;;;;27.55;18.42;;;22.60;99.90;;;;;;4996299;28;20015;-75
2022/08/28 00:12:46;;;;;;;31.10;17.58;;;22.60;99.90;;;;;;5001680;28;20237;-76
2022/08/28 00:15:16;;;;;;;26.15;20.20;;;22.60;99.90;;;;;;5019437;28;20080;-74
2022/08/28 00:17:42;;;;;;;27.75;18.65;;;22.60;99.90;;;;;;5014002;28;20018;-75
2022/08/28 00:20:10;;;;;;;28.85;18.02;;;22.60;99.90;;;;;;5014793;28;20030;-75
2022/08/28 00:22:37;;;;;;;29.63;19.05;;;22.60;99.90;;;;;;5013219;28;20030;-74
2022/08/28 00:25:05;;;;;;;26.63;18.38;;;22.60;99.90;;;;;;5013588;28;20025;-74
2022/08/28 00:30:15;;;;;;;26.85;19.63;;;22.50;99.90;;;;;;5012290;28;20026;-73
2022/08/28 00:32:41;;;;;;;31.90;19.40;;;22.60;99.90;;;;;;5012642;28;20645;-75
2022/08/28 00:35:07;;;;;;;25.83;19.23;;;22.60;99.90;;;;;;5012575;28;20014;-73
2022/08/28 00:37:34;;;;;;;24.13;17.25;;;22.60;99.90;;;;;;5011516;28;20026;-73
2022/08/28 00:40:00;;;;;;;26.15;16.73;;;22.50;99.90;;;;;;5013215;28;20045;-73
2022/08/28 00:42:26;;;;;;;23.52;16.00;;;22.40;99.90;;;;;;5010173;28;20029;-73
2022/08/28 00:44:52;;;;;;;25.67;15.52;;;22.40;99.90;;;;;;5011888;28;20366;-63
2022/08/28 00:47:18;;;;;;;24.85;15.32;;;22.40;99.90;;;;;;5011602;28;20034;-74
2022/08/28 00:49:50;;;;;;;24.58;14.50;;;22.40;99.90;;;;;;5012928;28;20041;-75
2022/08/28 00:52:19;;;;;;;22.83;14.10;;;22.40;99.90;;;;;;5012868;28;20042;-75
2022/08/28 00:54:50;;;;;;;30.10;15.57;;;22.40;99.90;;;;;;5013064;28;20138;-74
2022/08/28 00:57:25;;;;;;;24.85;15.77;;;22.20;99.90;;;;;;5012927;28;20026;-75
2022/08/28 00:59:52;;;;;;;25.33;15.10;;;22.10;99.90;;;;;;5013180;28;20381;-75
2022/08/28 01:02:20;;;;;;;23.98;14.70;;;22.00;99.90;;;;;;5012707;28;20026;-74
2022/08/28 01:04:47;;;;;;;20.65;14.30;;;21.90;99.90;;;;;;5012915;28;20472;-75
2022/08/28 01:07:14;;;;;;;23.58;14.55;;;21.90;99.90;;;;;;5013036;28;20504;-73
2022/08/28 01:09:49;;;;;;;23.80;14.10;;;22.00;99.90;;;;;;5013161;28;20030;-75
2022/08/28 01:12:21;;;;;;;25.58;13.15;;;21.90;99.90;;;;;;5012610;28;20044;-75
2022/08/28 01:14:50;;;;;;;23.20;13.23;;;21.70;99.90;;;;;;5012266;28;20030;-75
2022/08/28 01:17:19;;;;;;;26.20;13.02;;;21.80;99.90;;;;;;5012612;28;20469;-75
2022/08/28 01:19:57;;;;;;;20.00;13.52;;;21.70;99.90;;;;;;5012753;28;20022;-74
2022/08/28 01:22:30;;;;;;;19.58;12.80;;;;;;;;;;5012890;28;20372;-75
2022/08/28 01:25:00;;;;;;;22.85;12.43;;;21.70;99.90;;;;;;5012658;28;20038;-73
2022/08/28 01:27:28;;;;;;;18.23;12.60;;;;;;;;;;5009066;28;20030;-75
2022/08/28 01:29:54;;;;;;;23.92;14.10;;;21.60;99.90;;;;;;5012611;28;20405;-75
2022/08/28 01:32:35;;;;;;;22.05;12.18;;;21.50;99.90;;;;;;5012348;28;20095;-75
2022/08/28 01:35:02;;;;;;;20.15;11.70;;;21.50;99.90;;;;;;5012190;28;20032;-72
2022/08/28 01:37:28;;;;;;;21.67;12.15;;;21.50;99.90;;;;;;5012485;28;20022;-74
2022/08/28 01:39:54;;;;;;;23.02;13.45;;;21.50;99.90;;;;;;5012560;28;20032;-74
2022/08/28 01:42:20;;;;;;;21.42;12.27;;;21.50;99.90;;;;;;5012478;28;20018;-75
2022/08/28 01:44:46;;;;;;;25.02;13.13;;;21.40;99.90;;;;;;5012405;28;20068;-74
2022/08/28 01:47:12;;;;;;;21.95;12.00;;;21.30;99.90;;;;;;5012176;28;20062;-72
2022/08/28 01:49:38;;;;;;;24.13;12.98;;;21.30;99.90;;;;;;5012257;28;20489;-74
2022/08/28 01:52:04;;;;;;;19.00;11.80;;;21.40;99.90;;;;;;5012205;28;20034;-74
2022/08/28 01:54:30;;;;;;;20.40;12.75;;;21.40;99.90;;;;;;5011991;28;20075;-74
2022/08/28 01:56:56;;;;;;;18.38;11.88;;;21.30;99.90;;;;;;5011947;28;20026;-76
2022/08/28 01:59:22;;;;;;;18.02;13.05;;;21.40;99.90;;;;;;5012406;28;20109;-75
2022/08/28 02:01:48;;;;;;;22.33;13.05;;;21.40;99.90;;;;;;5010842;28;20029;-74
2022/08/28 02:04:14;;;;;;;20.00;11.77;;;21.40;99.90;;;;;;4992186;28;20022;-74
2022/08/28 02:06:40;;;;;;;22.27;13.43;;;21.40;99.90;;;;;;4991526;28;20034;-75
2022/08/28 02:09:07;;;;;;;20.08;12.70;;;21.40;99.90;;;;;;4991763;28;20147;-75
2022/08/28 02:11:33;;;;;;;22.55;12.70;;;21.40;99.90;;;;;;4991341;28;20564;-74
2022/08/28 02:14:00;;;;;;;24.15;12.00;;;21.40;99.90;;;;;;4991545;28;20026;-75
2022/08/28 02:16:26;;;;;;;23.70;13.05;;;21.40;99.90;;;;;;4991415;28;20070;-74
2022/08/28 02:18:52;;;;;;;25.35;12.35;;;21.40;99.90;;;;;;4991847;28;20079;-73
2022/08/28 02:21:18;;;;;;;22.27;11.85;;;21.40;99.90;;;;;;4991505;28;20062;-75
2022/08/28 02:23:45;;;;;;;23.77;13.50;;;21.30;99.90;;;;;;4991693;28;20358;-75
2022/08/28 02:26:12;;;;;;;23.58;12.65;;;21.30;99.90;;;;;;4991794;28;20112;-75
2022/08/28 02:28:39;;;;;;;20.38;12.02;;;21.30;99.90;;;;;;4991511;28;20347;-64
2022/08/28 02:31:08;;;;;;;18.92;12.27;;;21.30;99.90;;;;;;4991484;28;20062;-75
2022/08/28 02:33:38;;;;;;;20.42;12.43;;;21.30;99.90;;;;;;4993852;28;20473;-74
2022/08/28 02:36:08;;;;;;;19.27;12.40;;;21.30;99.90;;;;;;4991388;28;20026;-75
2022/08/28 02:38:34;;;;;;;23.20;12.52;;;21.30;99.90;;;;;;4991379;28;20369;-75
2022/08/28 02:41:00;;;;;;;19.38;11.75;;;21.20;99.90;;;;;;4991426;28;20041;-75
2022/08/28 02:43:26;;;;;;;23.67;11.50;;;21.20;99.90;;;;;;4995782;28;20030;-75
2022/08/28 02:45:52;;;;;;;19.63;12.57;;;21.20;99.90;;;;;;4996847;28;20030;-74
2022/08/28 02:48:18;;;;;;;20.75;11.38;;;21.20;99.90;;;;;;4990984;28;20042;-73
2022/08/28 02:50:45;;;;;;;22.52;12.13;;;21.20;99.90;;;;;;4991117;28;20385;-74
2022/08/28 02:53:11;;;;;;;22.15;12.43;;;21.20;99.90;;;;;;4991360;28;20037;-76
2022/08/28 02:55:37;;;;;;;22.20;13.25;;;21.20;99.90;;;;;;4991373;28;20026;-75
2022/08/28 02:58:05;;;;;;;26.92;13.63;;;21.20;99.90;;;;;;4993721;28;20034;-74
2022/08/28 03:00:31;;;;;;;21.33;13.50;;;21.20;99.90;;;;;;4992249;28;20054;-75
2022/08/28 03:02:57;;;;;;;22.90;15.45;;;21.10;99.90;;;;;;4990922;28;20026;-73
2022/08/28 03:05:24;;;;;;;22.83;12.88;;;21.10;99.90;;;;;;4991144;28;20474;-75
2022/08/28 03:07:52;;;;;;;22.30;14.30;;;21.10;99.90;;;;;;4990755;28;20094;-75
2022/08/28 03:10:19;;;;;;;23.83;14.95;;;21.10;99.90;;;;;;4992597;28;20035;-75
2022/08/28 03:12:45;;;;;;;22.45;13.70;;;21.00;99.90;;;;;;4994400;28;20034;-74
2022/08/28 03:15:11;;;;;;;21.05;14.32;;;21.00;99.90;;;;;;4994945;28;20385;-74
2022/08/28 03:17:38;;;;;;;34.00;14.00;;;21.00;99.90;;;;;;4994395;28;20029;-66
2022/08/28 03:20:06;;;;;;;25.00;14.27;;;21.00;99.90;;;;;;4995152;28;20026;-75
2022/08/28 03:25:16;;;;;;;18.83;13.27;;;21.10;99.90;;;;;;4994300;28;20106;-73
2022/08/28 03:27:42;;;;;;;24.55;13.43;;;21.10;99.90;;;;;;4994300;28;20105;-71
2022/08/28 03:30:08;;;;;;;29.05;14.02;;;21.00;99.90;;;;;;4994484;28;20146;-74
2022/08/28 03:32:35;;;;;;;22.85;13.05;;;21.00;99.90;;;;;;4993888;28;20045;-74
2022/08/28 03:35:01;;;;;;;20.42;14.13;;;21.00;99.90;;;;;;4998692;28;20101;-75
2022/08/28 03:37:27;;;;;;;25.90;14.40;;;21.00;99.90;;;;;;4994160;28;20030;-75
2022/08/28 03:39:53;;;;;;;25.38;13.63;;;21.00;99.90;;;;;;4994138;28;20034;-74
2022/08/28 03:42:19;;;;;;;20.60;12.50;;;20.90;99.90;;;;;;4998072;28;20106;-69
2022/08/28 03:44:46;;;;;;;21.10;13.00;;;20.90;99.90;;;;;;4993924;28;20512;-72
2022/08/28 03:47:12;;;;;;;23.15;13.50;;;21.00;99.90;;;;;;4994106;28;20046;-74
2022/08/28 03:49:38;;;;;;;22.05;14.18;;;20.90;99.90;;;;;;4993546;28;20145;-74
2022/08/28 03:52:04;;;;;;;24.00;14.27;;;20.90;99.90;;;;;;4993821;28;20073;-75
2022/08/28 03:54:30;;;;;;;19.92;14.00;;;20.90;99.90;;;;;;4993887;28;20693;-75
2022/08/28 03:56:56;;;;;;;21.10;14.25;;;20.90;99.90;;;;;;4993770;28;20361;-75
2022/08/28 03:59:22;;;;;;;24.88;15.50;;;20.80;99.90;;;;;;4996597;28;20029;-75
2022/08/28 04:01:48;;;;;;;23.38;15.10;;;20.80;99.90;;;;;;4993404;28;20097;-74
2022/08/28 04:04:13;;;;;;;21.15;14.32;;;20.80;99.90;;;;;;4993444;28;20493;-74
2022/08/28 04:06:39;;;;;;;20.30;14.10;;;20.90;99.90;;;;;;4993309;28;20023;-74
2022/08/28 04:09:05;;;;;;;22.80;14.77;;;20.90;99.90;;;;;;4993150;28;20022;-74
2022/08/28 04:11:41;;;;;;;20.55;13.73;;;20.90;99.90;;;;;;4993631;28;20053;-75
2022/08/28 04:14:08;;;;;;;20.85;13.30;;;21.00;99.90;;;;;;4993350;28;20370;-75
2022/08/28 04:16:35;;;;;;;27.20;11.82;;;21.10;99.90;;;;;;4993152;28;20077;-74
2022/08/28 04:19:01;;;;;;;21.67;12.25;;;21.10;99.90;;;;;;4990472;28;20022;-74
2022/08/28 04:21:27;;;;;;;22.50;12.57;;;21.30;99.90;;;;;;5006537;28;20085;-74
2022/08/28 04:23:54;;;;;;;17.60;11.88;;;21.40;99.90;;;;;;5017982;28;20018;-74
2022/08/28 04:26:23;;;;;;;20.17;12.38;;;21.50;99.90;;;;;;5013039;28;20033;-75
2022/08/28 04:28:49;;;;;;;21.33;12.30;;;21.60;99.90;;;;;;5013736;28;20472;-75
2022/08/28 04:31:16;;;;;;;18.88;11.60;;;21.90;99.90;;;;;;5013508;28;20030;-75
2022/08/28 04:33:42;;;;;;;21.50;13.23;;;22.10;99.90;;;;;;5012926;28;20425;-75
2022/08/28 04:36:14;;;;;;;19.15;10.93;;;22.30;99.90;;;;;;5013400;28;20118;-75
2022/08/28 04:38:41;;;;;;;26.35;12.85;;;22.50;99.90;;;;;;5017567;28;20064;-75
2022/08/28 04:41:09;;;;;;;20.02;11.05;;;22.50;99.90;;;;;;5013365;28;20044;-75
2022/08/28 04:43:35;;;;;;;19.35;11.90;;;22.70;99.90;;;;;;5013146;28;20021;-75
2022/08/28 04:46:07;;;;;;;19.30;12.10;;;22.50;99.90;;;;;;5013681;28;20477;-75
2022/08/28 04:48:34;;;;;;;22.25;12.18;;;22.80;99.90;;;;;;5012865;28;20101;-75
2022/08/28 04:51:00;;;;;;;20.73;12.60;;;23.00;99.90;;;;;;5013227;28;20038;-75
2022/08/28 04:53:25;;;;;;;23.35;11.82;;;23.20;99.90;;;;;;5013167;28;20064;-75
2022/08/28 04:55:52;;;;;;;17.50;11.27;;;23.70;99.90;;;;;;5013228;28;20464;-75
2022/08/28 04:58:19;;;;;;;20.48;11.35;;;24.00;99.90;;;;;;5012811;28;20507;-74
2022/08/28 05:00:47;;;;;;;20.70;12.55;;;23.90;99.90;;;;;;5013085;28;20018;-76
2022/08/28 05:03:15;;;;;;;24.83;12.82;;;24.10;99.90;;;;;;5012489;28;20064;-75
2022/08/28 05:05:45;;;;;;;18.92;11.43;;;24.10;99.90;;;;;;5012665;28;20010;-74
2022/08/28 05:08:13;;;;;;;20.30;11.27;;;24.40;99.90;;;;;;5013202;28;20041;-75
2022/08/28 05:10:40;;;;;;;19.70;11.60;;;24.60;99.90;;;;;;5013051;28;20484;-75
2022/08/28 05:13:08;;;;;;;16.63;10.18;;;24.50;99.90;;;;;;5013200;28;20045;-75
2022/08/28 05:15:38;;;;;;;20.50;11.43;;;24.30;99.90;;;;;;5011529;28;21462;-75
2022/08/28 05:18:04;;;;;;;17.90;12.30;;;23.70;99.90;;;;;;5013099;28;20034;-75
2022/08/28 05:20:35;;;;;;;20.23;11.15;;;23.50;99.90;;;;;;5012917;28;20026;-75
2022/08/28 05:23:02;;;;;;;20.58;11.05;;;23.40;99.90;;;;;;5012780;28;20030;-75
2022/08/28 05:25:28;;;;;;;21.73;11.38;;;23.40;99.90;;;;;;5012649;28;20033;-75
2022/08/28 05:27:54;;;;;;;17.65;10.93;;;23.30;99.90;;;;;;5011674;28;20034;-75
2022/08/28 05:30:20;;;;;;;17.13;11.55;;;23.50;99.90;;;;;;5012940;28;20032;-75
2022/08/28 05:32:46;;;;;;;19.60;11.00;;;23.40;99.90;;;;;;5011926;28;20489;-75
2022/08/28 05:35:13;;;;;;;17.90;10.13;;;23.40;99.90;;;;;;5012809;28;20032;-75
2022/08/28 05:37:39;;;;;;;19.42;10.18;;;23.40;99.90;;;;;;5012015;28;20033;-75
2022/08/28 05:40:05;;;;;;;20.77;11.07;;;23.50;99.90;;;;;;5010002;28;20030;-75
2022/08/28 05:42:31;;;;;;;17.58;9.85;;;23.30;99.90;;;;;;5010818;28;20121;-75
2022/08/28 05:44:58;;;;;;;14.73;8.98;;;23.50;99.90;;;;;;5012777;28;20093;-75
2022/08/28 05:47:24;;;;;;;23.35;10.75;;;23.60;99.90;;;;;;5012101;28;20069;-75
2022/08/28 05:49:49;;;;;;;15.45;10.05;;;23.60;99.90;;;;;;5007961;28;20433;-74
2022/08/28 05:52:15;;;;;;;13.40;8.70;;;23.60;99.90;;;;;;5021311;28;20092;-75
2022/08/28 05:54:42;;;;;;;18.58;9.90;;;23.80;99.90;;;;;;5011944;28;20054;-74
2022/08/28 05:57:08;;;;;;;19.52;9.65;;;23.70;99.90;;;;;;5012597;28;20022;-75
2022/08/28 05:59:34;;;;;;;14.80;9.02;;;23.70;99.90;;;;;;5012315;28;20076;-75
2022/08/28 06:02:04;;;;;;;15.93;9.50;;;23.90;99.90;;;;;;5020447;28;20049;-75
2022/08/28 06:04:29;;;;;;;18.25;8.88;;;23.80;99.90;;;;;;5016805;28;20041;-74
2022/08/28 06:06:56;;;;;;;14.70;8.60;;;24.00;99.90;;;;;;5012668;28;20030;-74
2022/08/28 06:09:27;;;;;;;16.45;9.40;;;24.00;99.90;;;;;;5009403;28;20018;-77
2022/08/28 06:11:54;;;;;;;17.35;9.18;;;24.00;99.90;;;;;;5008203;28;20121;-76
2022/08/28 06:14:20;;;;;;;18.42;8.98;;;24.00;99.90;;;;;;5011554;28;20018;-76
2022/08/28 06:16:52;;;;;;;17.70;8.73;;;24.10;99.90;;;;;;5011557;28;20092;-73
2022/08/28 06:19:21;;;;;;;14.50;8.43;;;24.40;99.90;;;;;;5001752;28;20029;-73
2022/08/28 06:21:50;;;;;;;17.05;8.52;;;;;;;;;;5011684;28;20026;-67
2022/08/28 06:24:17;;;;;;;14.90;8.55;;;24.40;99.90;;;;;;5011304;28;20029;-74
2022/08/28 06:26:44;;;;;;;14.85;8.93;;;24.60;99.90;;;;;;5011207;28;20044;-73
2022/08/28 06:29:14;;;;;;;17.50;9.90;;;24.50;99.90;;;;;;5010889;28;20029;-74
2022/08/28 06:31:40;;;;;;;13.23;8.07;;;24.60;99.90;;;;;;5012198;28;20038;-73
2022/08/28 06:34:08;;;;;;;15.23;8.25;;;24.70;99.90;;;;;;5011946;28;20022;-73
2022/08/28 06:36:37;;;;;;;16.58;9.00;;;24.70;99.90;;;;;;5011871;28;20084;-73
2022/08/28 06:39:04;;;;;;;15.18;8.25;;;24.80;99.90;;;;;;5011162;28;20037;-74
2022/08/28 06:41:32;;;;;;;17.00;8.00;;;24.90;99.90;;;;;;5007710;28;20037;-74
2022/08/28 06:43:58;;;;;;;17.58;9.23;;;25.00;99.90;;;;;;5013380;28;20346;-73
2022/08/28 06:46:25;;;;;;;15.32;8.40;;;24.80;99.90;;;;;;5015832;28;20026;-73
2022/08/28 06:48:51;;;;;;;12.82;7.63;;;24.90;99.90;;;;;;5015688;28;20405;-72
2022/08/28 06:51:18;;;;;;;17.60;8.00;;;24.90;99.90;;;;;;5015126;28;20092;-74
2022/08/28 06:53:44;;;;;;;13.88;8.13;;;25.10;99.90;;;;;;5015609;28;20026;-71
2022/08/28 06:56:13;;;;;;;13.75;7.10;;;25.30;99.90;;;;;;5015535;28;20025;-74
2022/08/28 06:58:41;;;;;;;19.15;7.72;;;;;;;;;;5015650;28;20056;-73
2022/08/28 07:01:07;;;;;;;13.95;7.68;;;25.60;99.90;;;;;;5014720;28;20092;-74
2022/08/28 07:03:33;;;;;;;12.95;7.20;;;25.60;99.90;;;;;;5014014;28;20532;-73
2022/08/28 07:06:01;;;;;;;13.98;7.00;;;25.80;99.90;;;;;;5014536;28;20049;-72
2022/08/28 07:08:28;;;;;;;14.75;7.13;;;26.00;99.90;;;;;;5015067;28;20026;-74
2022/08/28 07:10:54;;;;;;;15.90;7.70;;;26.10;99.90;;;;;;5014712;28;20374;-74
2022/08/28 07:13:21;;;;;;;11.85;6.85;;;26.40;99.90;;;;;;5014848;28;20025;-70
2022/08/28 07:15:47;;;;;;;13.50;6.70;;;26.30;99.90;;;;;;5014643;28;20072;-70
2022/08/28 07:18:14;;;;;;;16.10;7.47;;;26.00;99.90;;;;;;5014581;28;20029;-74
2022/08/28 07:20:40;;;;;;;12.75;7.07;;;26.40;99.90;;;;;;5014179;28;20507;-72
2022/08/28 07:23:06;;;;;;;12.02;6.75;;;26.60;99.90;;;;;;5014672;28;20034;-64
2022/08/28 07:25:32;;;;;;;12.30;6.97;;;26.50;99.90;;;;;;5014710;28;20113;-75
2022/08/28 07:27:59;;;;;;;14.07;7.15;;;26.90;99.90;;;;;;5014109;28;20252;-75
2022/08/28 07:30:25;;;;;;;13.63;6.38;;;;;;;;;;5015041;28;20025;-72
2022/08/28 07:32:51;;;;;;;14.40;6.60;;;26.80;99.90;;;;;;5015228;28;20056;-72
2022/08/28 07:35:17;;;;;;;12.30;6.93;;;27.10;99.90;;;;;;5015093;28;20461;-76
2022/08/28 07:37:44;;;;;;;12.77;7.25;;;;;;;;;;5015114;28;20022;-75
2022/08/28 07:40:11;;;;;;;15.23;7.18;;;27.30;99.90;;;;;;5015047;28;20033;-74
2022/08/28 07:45:22;;;;;;;18.55;6.72;;;27.30;99.90;;;;;;5015309;28;20026;-75
2022/08/28 07:47:50;;;;;;;12.80;6.70;;;;;;;;;;5014803;28;20081;-73
2022/08/28 07:50:16;;;;;;;10.95;6.93;;;27.40;99.90;;;;;;5013992;28;20033;-75
2022/08/28 07:52:42;;;;;;;13.40;7.55;;;27.50;99.90;;;;;;5014338;28;20672;-74
2022/08/28 07:55:08;;;;;;;15.63;7.05;;;27.60;99.90;;;;;;5013438;28;20018;-75
2022/08/28 07:57:34;;;;;;;15.15;7.07;;;27.50;99.90;;;;;;5014867;28;20034;-75
2022/08/28 08:00:00;;;;;;;12.07;6.38;;;27.50;99.90;;;;;;5014426;28;20022;-75
2022/08/28 08:02:26;;;;;;;12.27;6.10;;;27.90;99.90;;;;;;5014876;28;20100;-74
2022/08/28 08:04:52;;;;;;;15.80;7.03;;;27.90;99.90;;;;;;5014325;28;20098;-70
2022/08/28 08:07:19;;;;;;;13.15;6.25;;;27.80;99.90;;;;;;5014313;28;20376;-76
2022/08/28 08:09:45;;;;;;;15.23;7.63;;;27.80;99.50;;;;;;5013992;28;20018;-74
2022/08/28 08:12:12;;;;;;;15.48;6.80;;;27.80;99.90;;;;;;5014028;28;20034;-75
2022/08/28 08:14:39;;;;;;;14.07;7.05;;;27.80;99.90;;;;;;5012777;28;20030;-74
2022/08/28 08:17:06;;;;;;;17.50;7.68;;;27.70;99.90;;;;;;5020958;28;20030;-74
2022/08/28 08:19:32;;;;;;;12.35;6.97;;;27.70;99.90;;;;;;5013964;28;20034;-74
2022/08/28 08:21:58;;;;;;;13.25;6.78;;;27.90;99.90;;;;;;5010622;28;20022;-72
2022/08/28 08:24:25;;;;;;;17.52;7.30;;;28.00;99.90;;;;;;5009902;28;20380;-72
2022/08/28 08:26:54;;;;;;;14.00;7.50;;;28.10;99.90;;;;;;5013307;28;20045;-74
2022/08/28 08:29:20;;;;;;;14.30;7.60;;;28.20;99.90;;;;;;5012175;28;20029;-75
2022/08/28 08:31:57;;;;;;;13.52;6.57;;;28.40;99.90;;;;;;5013362;28;20107;-74
2022/08/28 08:34:24;;;;;;;13.38;6.80;;;28.20;99.00;;;;;;5013766;28;20108;-75
2022/08/28 08:36:50;;;;;;;22.25;7.65;;;28.30;97.70;;;;;;5013792;28;20057;-75
2022/08/28 08:39:16;;;;;;;14.13;6.80;;;28.40;98.20;;;;;;5013933;28;20508;-74
2022/08/28 08:41:46;;;;;;;14.50;8.00;;;;;;;;;;5013811;28;20069;-74
2022/08/28 08:44:18;;;;;;;13.00;6.40;;;28.80;97.80;;;;;;5013714;28;20025;-76
2022/08/28 08:46:56;;;;;;;8.80;5.95;;;29.10;96.20;;;;;;5013437;28;20029;-75
2022/08/28 08:49:28;;;;;;;17.45;6.88;;;29.20;96.30;;;;;;5012633;28;20045;-75
2022/08/28 08:52:04;;;;;;;14.23;7.15;;;29.00;95.40;;;;;;5011509;28;20045;-72
2022/08/28 08:54:30;;;;;;;17.02;6.68;;;29.00;95.80;;;;;;5013227;28;20041;-76
2022/08/28 08:56:56;;;;;;;20.38;7.38;;;29.20;96.00;;;;;;5013264;28;20134;-74
2022/08/28 08:59:29;;;;;;;16.88;7.00;;;29.20;93.50;;;;;;5013652;28;20514;-75
2022/08/28 09:02:12;;;;;;;11.45;6.80;;;29.10;96.40;;;;;;5013117;28;20033;-75
2022/08/28 09:05:09;;;;;;;15.00;7.53;;;29.40;95.40;;;;;;5013251;28;20030;-76
2022/08/28 09:07:40;;;;;;;16.48;8.30;;;29.40;93.80;;;;;;5012156;28;20025;-75
2022/08/28 09:10:10;;;;;;;;;;;29.40;94.60;;;;;;5012867;28;20034;-75
2022/08/28 09:13:02;;;;;;;14.07;7.55;;;29.40;94.00;;;;;;5013367;28;19924;-75
2022/08/28 09:15:43;;;;;;;;;;;29.40;96.30;;;;;;5012981;28;20042;-76
2022/08/28 09:18:18;;;;;;;13.82;6.95;;;29.50;94.50;;;;;;5013369;28;20360;-77
2022/08/28 09:20:49;;;;;;;16.13;7.63;;;29.50;95.40;;;;;;5012887;28;20038;-76
2022/08/28 09:23:15;;;;;;;11.68;7.57;;;29.40;93.90;;;;;;5013339;28;20392;-74
2022/08/28 09:25:43;;;;;;;14.07;7.30;;;29.30;94.40;;;;;;5012773;28;20080;-77
2022/08/28 09:28:13;;;;;;;17.10;7.60;;;29.40;95.00;;;;;;5013303;28;20033;-76
2022/08/28 09:30:40;;;;;;;19.58;8.68;;;29.60;93.30;;;;;;5012793;28;20054;-76
2022/08/28 09:33:06;;;;;;;13.65;8.43;;;29.40;91.50;;;;;;5012758;28;20042;-77
2022/08/28 09:35:36;;;;;;;13.32;8.48;;;29.50;94.80;;;;;;5012940;28;20453;-76
2022/08/28 09:38:20;;;;;;;12.77;7.55;;;29.60;94.10;;;;;;5012817;28;20076;-75
2022/08/28 09:43:32;;;;;;;23.83;9.38;;;29.60;91.70;;;;;;5012554;28;20489;-75
2022/08/28 09:46:14;;;;;;;17.73;7.88;;;29.60;91.80;;;;;;5011514;28;20021;-73
2022/08/28 09:48:45;;;;;;;14.05;7.78;;;;;;;;;;5010796;28;20058;-76
2022/08/28 09:51:28;;;;;;;15.97;7.37;;;29.90;99.90;;;;;;5011860;28;20035;-77
2022/08/28 09:54:01;;;;;;;13.73;7.80;;;30.10;99.20;;;;;;4999360;28;20038;-77
2022/08/28 09:56:33;;;;;;;16.92;8.68;;;30.10;91.90;;;;;;5008052;28;20034;-76
2022/08/28 09:59:07;;;;;;;14.85;8.23;;;30.10;92.40;;;;;;5012122;28;20034;-73
2022/08/28 10:01:33;;;;;;;17.10;8.55;;;30.10;90.90;;;;;;5014262;28;20051;-74
2022/08/28 10:04:18;;;;;;;23.15;8.43;;;29.90;90.20;;;;;;5012445;28;20034;-76
2022/08/28 10:07:14;;;;;;;12.90;8.20;;;30.00;90.20;;;;;;5012725;28;20087;-77
2022/08/28 10:10:01;;;;;;;17.50;9.63;;;30.00;90.00;;;;;;5012426;28;20025;-75
2022/08/28 10:13:00;;;;;;;19.33;9.07;;;30.20;91.90;;;;;;5012010;28;20125;-74
2022/08/28 10:15:31;;;;;;;16.13;8.40;;;30.40;99.90;;;;;;5012614;28;20037;-74
2022/08/28 10:18:16;;;;;;;;;;;30.50;99.90;;;;;;5012604;28;20076;-72
2022/08/28 10:20:54;;;;;;;15.93;9.07;;;;;;;;;;5008262;28;20007;-73
2022/08/28 10:23:38;;;;;;;15.82;8.55;;;30.70;89.50;;;;;;5015632;28;20022;-73
2022/08/28 10:26:15;;;;;;;15.30;9.10;;;30.70;89.30;;;;;;5014265;28;20080;-74
2022/08/28 10:29:02;;;;;;;16.75;7.25;;;30.70;88.40;;;;;;5016094;28;20025;-74
2022/08/28 10:32:01;;;;;;;14.48;8.77;;;30.50;87.30;;;;;;5016367;28;20038;-73
2022/08/28 10:34:33;;;;;;;17.75;8.75;;;30.50;88.70;;;;;;5016060;28;20030;-74
2022/08/28 10:36:59;;;;;;;;;;;;;;;;;;5015846;28;20022;-73
2022/08/28 10:39:28;;;;;;;18.40;8.15;;;;;;;;;;5014288;28;20368;-71
2022/08/28 10:41:58;;;;;;;14.50;8.20;;;;;;;;;;5013668;28;20030;-66
2022/08/28 10:44:33;;;;;;;15.30;8.40;;;31.10;86.90;;;;;;4996031;28;20424;-72
2022/08/28 10:47:01;;;;;;;11.88;8.02;;;30.80;86.50;;;;;;5006756;28;20385;-72
2022/08/28 10:49:33;;;;;;;13.95;8.57;;;30.90;85.20;;;;;;5014531;28;20038;-70
2022/08/28 10:52:08;;;;;;;14.10;8.25;;;30.80;84.30;;;;;;4999119;28;20061;-70
2022/08/28 10:55:13;;;;;;;17.92;8.82;;;30.60;83.40;;;;;;5001290;28;20026;-72
2022/08/28 10:58:02;;;;;;;16.67;8.77;;;30.80;85.00;;;;;;4974129;28;20442;-73
2022/08/28 11:00:29;;;;;;;14.93;8.85;;;30.90;87.50;;;;;;4973114;28;20105;-70
2022/08/28 11:02:59;;;;;;;14.88;8.00;;;30.90;83.60;;;;;;4975509;28;20023;-65
2022/08/28 11:05:31;;;;;;;12.88;8.10;;;30.80;82.20;;;;;;4973216;28;20336;-71
2022/08/28 11:08:03;;;;;;;16.27;8.18;;;30.90;83.10;;;;;;4973309;28;20045;-71
2022/08/28 11:10:35;;;;;;;12.85;7.72;;;30.80;83.10;;;;;;4976755;28;20031;-73
2022/08/28 11:13:02;;;;;;;14.68;7.75;;;30.80;80.40;;;;;;4974221;28;20611;-71
2022/08/28 11:15:28;;;;;;;16.50;7.30;;;31.00;80.40;;;;;;4973972;28;20065;-71
2022/08/28 11:18:17;;;;;;;16.67;7.18;;;31.00;78.70;;;;;;4974021;28;20043;-72
2022/08/28 11:21:29;;;;;;;13.73;8.75;;;30.90;81.20;;;;;;4974686;28;20066;-74
2022/08/28 11:23:59;;;;;;;;;;;30.90;81.10;;;;;;4962934;28;20050;-71
2022/08/28 11:26:39;;;;;;;12.45;7.28;;;30.90;81.20;;;;;;4973839;28;19914;-71
2022/08/28 11:29:05;;;;;;;16.55;7.25;;;30.80;82.20;;;;;;4973901;28;20031;-72
2022/08/28 11:31:34;;;;;;;16.23;8.55;;;30.80;80.80;;;;;;4993023;28;20041;-69
2022/08/28 11:34:01;;;;;;;15.68;7.40;;;30.90;81.10;;;;;;5014187;28;20036;-71
2022/08/28 11:36:28;;;;;;;14.80;7.47;;;31.10;80.50;;;;;;5010327;28;20081;-73
2022/08/28 11:38:54;;;;;;;13.63;7.05;;;31.00;80.10;;;;;;5005765;28;20037;-73
2022/08/28 11:41:35;;;;;;;13.70;8.02;;;31.20;80.80;;;;;;5014966;28;20026;-72
2022/08/28 11:44:11;;;;;;;12.73;7.57;;;;;;;;;;5015119;28;20088;-71
2022/08/28 11:46:38;;;;;;;16.08;8.57;;;31.10;81.20;;;;;;5014905;28;20022;-63
2022/08/28 11:49:33;;;;;;;19.88;7.25;;;31.10;80.90;;;;;;5014722;28;20124;-69
2022/08/28 11:52:29;;;;;;;16.73;8.27;;;31.30;80.90;;;;;;5013003;28;20033;-72
2022/08/28 11:55:20;;;;;;;17.40;8.10;;;31.40;80.80;;;;;;5005179;28;20033;-72
2022/08/28 11:57:52;;;;;;;16.43;8.47;;;;;;;;;;5018577;28;20537;-72
2022/08/28 12:00:22;;;;;;;12.95;7.40;;;31.30;79.60;;;;;;5014641;28;20275;-73
2022/08/28 12:03:11;;;;;;;17.55;8.25;;;31.40;79.70;;;;;;5013439;28;20025;-70
2022/08/28 12:05:43;;;;;;;13.07;6.63;;;31.40;80.20;;;;;;5013450;28;20036;-69
2022/08/28 12:08:10;;;;;;;15.95;7.82;;;31.30;79.40;;;;;;5023080;28;20542;-62
2022/08/28 12:10:36;;;;;;;13.52;7.22;;;31.40;82.10;;;;;;5014202;28;20092;-73
2022/08/28 12:13:06;;;;;;;21.67;8.20;;;31.40;80.40;;;;;;5012860;28;20446;-72
2022/08/28 12:15:32;;;;;;;12.45;7.30;;;31.40;79.90;;;;;;5026208;28;20025;-73
2022/08/28 12:18:05;;;;;;;16.23;7.13;;;31.40;78.50;;;;;;5020214;28;20358;-72
2022/08/28 12:20:46;;;;;;;17.50;8.68;;;31.50;79.60;;;;;;5006161;28;20493;-71
2022/08/28 12:23:33;;;;;;;16.33;7.75;;;31.50;79.50;;;;;;5013296;28;20030;-72
2022/08/28 12:26:20;;;;;;;13.68;7.70;;;31.50;77.30;;;;;;5014197;28;20034;-72
2022/08/28 12:29:15;;;;;;;11.43;7.07;;;31.30;77.70;;;;;;5013990;28;20030;-72
2022/08/28 12:32:11;;;;;;;12.32;6.95;;;31.40;79.60;;;;;;5012573;28;20046;-71
2022/08/28 12:34:41;;;;;;;13.63;7.10;;;31.30;78.40;;;;;;5013689;28;20108;-72
2022/08/28 12:37:24;;;;;;;13.52;7.18;;;31.50;78.10;;;;;;5012540;28;20080;-72
2022/08/28 12:39:51;;;;;;;15.02;6.72;;;31.40;77.90;;;;;;5008668;28;20018;-72
2022/08/28 12:42:19;;;;;;;16.60;7.78;;;31.40;79.40;;;;;;5010502;28;20030;-73
2022/08/28 12:44:45;;;;;;;17.17;7.78;;;31.40;80.90;;;;;;5013993;28;20465;-72
2022/08/28 12:47:19;;;;;;;14.73;7.00;;;31.40;79.10;;;;;;5013295;28;20117;-71
2022/08/28 12:49:45;;;;;;;14.13;7.80;;;31.40;81.10;;;;;;5013987;28;20034;-72
2022/08/28 12:52:14;;;;;;;18.48;7.25;;;31.50;80.10;;;;;;5013156;28;20080;-72
2022/08/28 12:54:40;;;;;;;16.33;6.93;;;31.50;80.40;;;;;;5013636;28;20381;-72
2022/08/28 12:57:11;;;;;;;21.30;8.05;;;31.70;79.90;;;;;;5013836;28;20026;-72
2022/08/28 12:59:42;;;;;;;13.00;6.95;;;31.60;78.40;;;;;;5012860;28;20435;-71
2022/08/28 13:02:10;;;;;;;14.38;7.25;;;31.50;76.80;;;;;;5018181;28;20026;-72